sensor_id;sensor_type;location;lat;lon;timestamp;temperature;humidity
66184;DHT22;52989;48.796;9.806;2022-07-23T00:00:46;22.70;93.90
66184;DHT22;52989;48.796;9.806;2022-07-23T00:03:12;22.90;91.10
66184;DHT22;52989;48.796;9.806;2022-07-23T00:05:39;23.00;90.90
66184;DHT22;52989;48.796;9.806;2022-07-23T00:08:05;22.70;91.20
66184;DHT22;52989;48.796;9.806;2022-07-23T00:10:31;22.70;91.10
66184;DHT22;52989;48.796;9.806;2022-07-23T00:12:57;22.80;90.70
66184;DHT22;52989;48.796;9.806;2022-07-23T00:15:23;22.80;90.40
66184;DHT22;52989;48.796;9.806;2022-07-23T00:17:48;22.90;90.70
66184;DHT22;52989;48.796;9.806;2022-07-23T00:20:14;22.80;88.50
66184;DHT22;52989;48.796;9.806;2022-07-23T00:22:53;22.90;90.30
66184;DHT22;52989;48.796;9.806;2022-07-23T00:25:19;23.00;90.00
66184;DHT22;52989;48.796;9.806;2022-07-23T00:27:45;22.90;88.70
66184;DHT22;52989;48.796;9.806;2022-07-23T00:30:12;22.80;88.00
66184;DHT22;52989;48.796;9.806;2022-07-23T00:32:49;22.70;89.70
66184;DHT22;52989;48.796;9.806;2022-07-23T00:35:16;22.50;88.60
66184;DHT22;52989;48.796;9.806;2022-07-23T00:37:44;22.20;89.10
66184;DHT22;52989;48.796;9.806;2022-07-23T00:40:10;22.40;85.70
66184;DHT22;52989;48.796;9.806;2022-07-23T00:42:36;22.40;88.20
66184;DHT22;52989;48.796;9.806;2022-07-23T00:45:03;22.50;88.10
66184;DHT22;52989;48.796;9.806;2022-07-23T00:47:28;22.20;89.50
66184;DHT22;52989;48.796;9.806;2022-07-23T00:49:54;22.30;90.10
66184;DHT22;52989;48.796;9.806;2022-07-23T00:52:20;22.10;90.80
66184;DHT22;52989;48.796;9.806;2022-07-23T00:54:45;21.70;92.30
66184;DHT22;52989;48.796;9.806;2022-07-23T00:57:11;21.50;92.80
66184;DHT22;52989;48.796;9.806;2022-07-23T00:59:39;21.30;94.10
66184;DHT22;52989;48.796;9.806;2022-07-23T01:02:04;21.30;94.20
66184;DHT22;52989;48.796;9.806;2022-07-23T01:04:30;21.40;94.40
66184;DHT22;52989;48.796;9.806;2022-07-23T01:06:56;21.70;93.10
66184;DHT22;52989;48.796;9.806;2022-07-23T01:09:21;22.00;92.30
66184;DHT22;52989;48.796;9.806;2022-07-23T01:11:47;21.90;92.20
66184;DHT22;52989;48.796;9.806;2022-07-23T01:14:16;22.10;91.30
66184;DHT22;52989;48.796;9.806;2022-07-23T01:16:43;21.70;92.60
66184;DHT22;52989;48.796;9.806;2022-07-23T01:19:09;21.50;94.90
66184;DHT22;52989;48.796;9.806;2022-07-23T01:21:53;21.20;97.40
66184;DHT22;52989;48.796;9.806;2022-07-23T01:24:20;20.80;99.90
66184;DHT22;52989;48.796;9.806;2022-07-23T01:26:47;21.00;99.90
66184;DHT22;52989;48.796;9.806;2022-07-23T01:29:14;21.20;99.90
66184;DHT22;52989;48.796;9.806;2022-07-23T01:31:40;21.00;99.90
66184;DHT22;52989;48.796;9.806;2022-07-23T01:34:05;20.80;99.90
66184;DHT22;52989;48.796;9.806;2022-07-23T01:36:35;20.70;99.90
66184;DHT22;52989;48.796;9.806;2022-07-23T01:39:05;20.60;99.90
66184;DHT22;52989;48.796;9.806;2022-07-23T01:41:31;20.40;99.90
66184;DHT22;52989;48.796;9.806;2022-07-23T01:43:57;20.20;99.90
66184;DHT22;52989;48.796;9.806;2022-07-23T01:46:22;20.40;99.90
66184;DHT22;52989;48.796;9.806;2022-07-23T01:48:48;20.40;99.90
66184;DHT22;52989;48.796;9.806;2022-07-23T01:51:14;20.60;99.90
66184;DHT22;52989;48.796;9.806;2022-07-23T01:53:40;20.70;99.90
66184;DHT22;52989;48.796;9.806;2022-07-23T01:56:06;20.70;99.90
66184;DHT22;52989;48.796;9.806;2022-07-23T01:58:31;20.60;99.90
66184;DHT22;52989;48.796;9.806;2022-07-23T02:00:57;20.70;99.90
66184;DHT22;52989;48.796;9.806;2022-07-23T02:03:24;20.50;99.90
66184;DHT22;52989;48.796;9.806;2022-07-23T02:05:50;20.50;99.90
66184;DHT22;52989;48.796;9.806;2022-07-23T02:08:15;20.70;99.40
66184;DHT22;52989;48.796;9.806;2022-07-23T02:10:41;20.90;99.50
66184;DHT22;52989;48.796;9.806;2022-07-23T02:13:07;21.10;99.90
66184;DHT22;52989;48.796;9.806;2022-07-23T02:15:32;21.20;97.00
66184;DHT22;52989;48.796;9.806;2022-07-23T02:17:58;21.30;99.90
66184;DHT22;52989;48.796;9.806;2022-07-23T02:20:24;21.10;99.90
66184;DHT22;52989;48.796;9.806;2022-07-23T02:22:50;21.10;99.90
66184;DHT22;52989;48.796;9.806;2022-07-23T02:25:15;21.40;99.90
66184;DHT22;52989;48.796;9.806;2022-07-23T02:27:41;21.40;99.90
66184;DHT22;52989;48.796;9.806;2022-07-23T02:30:07;20.90;99.90
66184;DHT22;52989;48.796;9.806;2022-07-23T02:32:33;21.10;99.20
66184;DHT22;52989;48.796;9.806;2022-07-23T02:34:59;21.20;99.90
66184;DHT22;52989;48.796;9.806;2022-07-23T02:37:24;20.60;99.90
66184;DHT22;52989;48.796;9.806;2022-07-23T02:39:50;20.60;99.90
66184;DHT22;52989;48.796;9.806;2022-07-23T02:42:16;20.70;99.90
66184;DHT22;52989;48.796;9.806;2022-07-23T02:44:41;20.80;99.90
66184;DHT22;52989;48.796;9.806;2022-07-23T02:47:07;20.60;99.90
66184;DHT22;52989;48.796;9.806;2022-07-23T02:49:33;20.90;99.90
66184;DHT22;52989;48.796;9.806;2022-07-23T02:51:59;21.00;99.90
66184;DHT22;52989;48.796;9.806;2022-07-23T02:54:24;20.90;99.90
66184;DHT22;52989;48.796;9.806;2022-07-23T02:56:50;20.80;99.90
66184;DHT22;52989;48.796;9.806;2022-07-23T02:59:16;21.00;99.80
66184;DHT22;52989;48.796;9.806;2022-07-23T03:01:42;21.10;99.90
66184;DHT22;52989;48.796;9.806;2022-07-23T03:04:08;20.80;99.90
66184;DHT22;52989;48.796;9.806;2022-07-23T03:06:34;20.40;99.90
66184;DHT22;52989;48.796;9.806;2022-07-23T03:08:59;20.20;99.90
66184;DHT22;52989;48.796;9.806;2022-07-23T03:11:25;20.10;99.90
66184;DHT22;52989;48.796;9.806;2022-07-23T03:13:50;20.00;99.90
66184;DHT22;52989;48.796;9.806;2022-07-23T03:16:16;19.90;99.90
66184;DHT22;52989;48.796;9.806;2022-07-23T03:18:42;19.90;99.90
66184;DHT22;52989;48.796;9.806;2022-07-23T03:21:08;19.70;99.90
66184;DHT22;52989;48.796;9.806;2022-07-23T03:23:34;20.20;99.90
66184;DHT22;52989;48.796;9.806;2022-07-23T03:25:59;20.30;99.90
66184;DHT22;52989;48.796;9.806;2022-07-23T03:28:25;20.40;99.90
66184;DHT22;52989;48.796;9.806;2022-07-23T03:30:50;20.70;99.90
66184;DHT22;52989;48.796;9.806;2022-07-23T03:33:17;21.10;99.90
66184;DHT22;52989;48.796;9.806;2022-07-23T03:35:44;21.10;99.90
66184;DHT22;52989;48.796;9.806;2022-07-23T03:38:10;20.90;99.90
66184;DHT22;52989;48.796;9.806;2022-07-23T03:40:36;20.80;99.90
66184;DHT22;52989;48.796;9.806;2022-07-23T03:43:01;20.50;99.90
66184;DHT22;52989;48.796;9.806;2022-07-23T03:45:27;20.50;99.90
66184;DHT22;52989;48.796;9.806;2022-07-23T03:47:53;20.50;99.70
66184;DHT22;52989;48.796;9.806;2022-07-23T03:50:19;20.40;99.90
66184;DHT22;52989;48.796;9.806;2022-07-23T03:52:45;20.20;99.90
66184;DHT22;52989;48.796;9.806;2022-07-23T03:55:10;20.50;99.90
66184;DHT22;52989;48.796;9.806;2022-07-23T03:57:36;20.30;99.90
66184;DHT22;52989;48.796;9.806;2022-07-23T04:00:04;19.80;99.90
66184;DHT22;52989;48.796;9.806;2022-07-23T04:02:30;19.60;99.90
66184;DHT22;52989;48.796;9.806;2022-07-23T04:04:56;19.50;99.90
66184;DHT22;52989;48.796;9.806;2022-07-23T04:07:22;19.40;99.90
66184;DHT22;52989;48.796;9.806;2022-07-23T04:09:47;19.40;99.90
66184;DHT22;52989;48.796;9.806;2022-07-23T04:12:13;19.40;99.90
66184;DHT22;52989;48.796;9.806;2022-07-23T04:14:39;19.30;99.90
66184;DHT22;52989;48.796;9.806;2022-07-23T04:17:05;19.40;99.90
66184;DHT22;52989;48.796;9.806;2022-07-23T04:19:30;19.70;99.90
66184;DHT22;52989;48.796;9.806;2022-07-23T04:21:56;19.90;99.90
66184;DHT22;52989;48.796;9.806;2022-07-23T04:24:22;19.90;99.90
66184;DHT22;52989;48.796;9.806;2022-07-23T04:26:48;20.00;99.90
66184;DHT22;52989;48.796;9.806;2022-07-23T04:29:14;19.80;99.90
66184;DHT22;52989;48.796;9.806;2022-07-23T04:31:39;19.50;99.90
66184;DHT22;52989;48.796;9.806;2022-07-23T04:34:05;19.40;99.90
66184;DHT22;52989;48.796;9.806;2022-07-23T04:36:30;19.30;99.90
66184;DHT22;52989;48.796;9.806;2022-07-23T04:38:56;19.80;99.90
66184;DHT22;52989;48.796;9.806;2022-07-23T04:41:22;19.60;99.90
66184;DHT22;52989;48.796;9.806;2022-07-23T04:43:47;19.40;99.90
66184;DHT22;52989;48.796;9.806;2022-07-23T04:46:13;19.40;99.90
66184;DHT22;52989;48.796;9.806;2022-07-23T04:48:39;19.40;99.90
66184;DHT22;52989;48.796;9.806;2022-07-23T04:51:05;19.40;99.90
66184;DHT22;52989;48.796;9.806;2022-07-23T04:53:31;19.40;99.90
66184;DHT22;52989;48.796;9.806;2022-07-23T04:55:57;19.30;99.90
66184;DHT22;52989;48.796;9.806;2022-07-23T04:58:22;19.50;99.90
66184;DHT22;52989;48.796;9.806;2022-07-23T05:00:48;19.80;99.90
66184;DHT22;52989;48.796;9.806;2022-07-23T05:03:14;19.80;99.90
66184;DHT22;52989;48.796;9.806;2022-07-23T05:05:39;20.20;99.90
66184;DHT22;52989;48.796;9.806;2022-07-23T05:08:05;20.10;99.90
66184;DHT22;52989;48.796;9.806;2022-07-23T05:10:31;19.90;99.90
66184;DHT22;52989;48.796;9.806;2022-07-23T05:12:56;20.00;99.90
66184;DHT22;52989;48.796;9.806;2022-07-23T05:15:22;19.90;99.90
66184;DHT22;52989;48.796;9.806;2022-07-23T05:17:48;20.10;99.90
66184;DHT22;52989;48.796;9.806;2022-07-23T05:20:13;20.30;99.90
66184;DHT22;52989;48.796;9.806;2022-07-23T05:22:39;20.30;99.90
66184;DHT22;52989;48.796;9.806;2022-07-23T05:25:05;20.30;99.90
66184;DHT22;52989;48.796;9.806;2022-07-23T05:27:31;20.30;99.90
66184;DHT22;52989;48.796;9.806;2022-07-23T05:29:57;20.10;99.90
66184;DHT22;52989;48.796;9.806;2022-07-23T05:32:23;20.10;99.90
66184;DHT22;52989;48.796;9.806;2022-07-23T05:34:48;20.30;99.90
66184;DHT22;52989;48.796;9.806;2022-07-23T05:37:14;20.40;99.90
66184;DHT22;52989;48.796;9.806;2022-07-23T05:39:39;21.00;99.90
66184;DHT22;52989;48.796;9.806;2022-07-23T05:42:05;21.10;99.90
66184;DHT22;52989;48.796;9.806;2022-07-23T05:44:31;21.50;99.20
66184;DHT22;52989;48.796;9.806;2022-07-23T05:46:56;21.60;98.60
66184;DHT22;52989;48.796;9.806;2022-07-23T05:49:22;21.80;98.80
66184;DHT22;52989;48.796;9.806;2022-07-23T05:51:48;21.90;98.00
66184;DHT22;52989;48.796;9.806;2022-07-23T05:54:13;22.00;99.70
66184;DHT22;52989;48.796;9.806;2022-07-23T05:56:39;21.70;99.90
66184;DHT22;52989;48.796;9.806;2022-07-23T05:59:04;21.40;99.90
66184;DHT22;52989;48.796;9.806;2022-07-23T06:01:31;21.40;99.90
66184;DHT22;52989;48.796;9.806;2022-07-23T06:03:57;21.30;99.90
66184;DHT22;52989;48.796;9.806;2022-07-23T06:06:22;21.60;98.40
66184;DHT22;52989;48.796;9.806;2022-07-23T06:08:48;21.60;99.90
66184;DHT22;52989;48.796;9.806;2022-07-23T06:11:13;21.50;99.90
66184;DHT22;52989;48.796;9.806;2022-07-23T06:13:39;21.80;98.40
66184;DHT22;52989;48.796;9.806;2022-07-23T06:16:04;22.00;98.30
66184;DHT22;52989;48.796;9.806;2022-07-23T06:18:30;22.00;99.90
66184;DHT22;52989;48.796;9.806;2022-07-23T06:20:56;22.00;98.40
66184;DHT22;52989;48.796;9.806;2022-07-23T06:23:21;22.00;99.30
66184;DHT22;52989;48.796;9.806;2022-07-23T06:25:47;22.00;99.90
66184;DHT22;52989;48.796;9.806;2022-07-23T06:28:13;22.50;96.80
66184;DHT22;52989;48.796;9.806;2022-07-23T06:30:38;22.20;99.90
66184;DHT22;52989;48.796;9.806;2022-07-23T06:33:04;21.90;99.90
66184;DHT22;52989;48.796;9.806;2022-07-23T06:35:29;22.00;99.30
66184;DHT22;52989;48.796;9.806;2022-07-23T06:37:55;22.00;98.60
66184;DHT22;52989;48.796;9.806;2022-07-23T06:40:21;22.20;99.90
66184;DHT22;52989;48.796;9.806;2022-07-23T06:42:46;22.10;99.90
66184;DHT22;52989;48.796;9.806;2022-07-23T06:45:12;21.80;99.90
66184;DHT22;52989;48.796;9.806;2022-07-23T06:47:37;21.90;99.90
66184;DHT22;52989;48.796;9.806;2022-07-23T06:50:04;22.30;97.10
66184;DHT22;52989;48.796;9.806;2022-07-23T06:52:30;22.40;96.80
66184;DHT22;52989;48.796;9.806;2022-07-23T06:54:55;22.60;93.00
66184;DHT22;52989;48.796;9.806;2022-07-23T06:57:21;22.70;92.60
66184;DHT22;52989;48.796;9.806;2022-07-23T06:59:47;22.70;93.40
66184;DHT22;52989;48.796;9.806;2022-07-23T07:02:12;23.00;91.90
66184;DHT22;52989;48.796;9.806;2022-07-23T07:04:38;23.10;91.30
66184;DHT22;52989;48.796;9.806;2022-07-23T07:07:03;23.30;90.30
66184;DHT22;52989;48.796;9.806;2022-07-23T07:09:29;23.50;89.50
66184;DHT22;52989;48.796;9.806;2022-07-23T07:11:55;23.50;90.70
66184;DHT22;52989;48.796;9.806;2022-07-23T07:14:20;23.70;88.40
66184;DHT22;52989;48.796;9.806;2022-07-23T07:16:46;24.10;88.50
66184;DHT22;52989;48.796;9.806;2022-07-23T07:19:11;24.10;85.30
66184;DHT22;52989;48.796;9.806;2022-07-23T07:21:37;24.20;87.10
66184;DHT22;52989;48.796;9.806;2022-07-23T07:24:03;23.90;86.30
66184;DHT22;52989;48.796;9.806;2022-07-23T07:26:29;23.80;86.70
66184;DHT22;52989;48.796;9.806;2022-07-23T07:28:56;23.80;88.30
66184;DHT22;52989;48.796;9.806;2022-07-23T07:31:22;23.70;90.50
66184;DHT22;52989;48.796;9.806;2022-07-23T07:33:47;23.80;91.30
66184;DHT22;52989;48.796;9.806;2022-07-23T07:36:13;23.80;89.70
66184;DHT22;52989;48.796;9.806;2022-07-23T07:38:39;24.10;87.40
66184;DHT22;52989;48.796;9.806;2022-07-23T07:41:04;24.10;88.90
66184;DHT22;52989;48.796;9.806;2022-07-23T07:43:30;24.30;90.30
66184;DHT22;52989;48.796;9.806;2022-07-23T07:45:55;24.40;87.20
66184;DHT22;52989;48.796;9.806;2022-07-23T07:48:21;24.60;83.30
66184;DHT22;52989;48.796;9.806;2022-07-23T07:50:47;24.60;87.80
66184;DHT22;52989;48.796;9.806;2022-07-23T07:53:12;24.90;84.20
66184;DHT22;52989;48.796;9.806;2022-07-23T07:55:38;24.90;84.10
66184;DHT22;52989;48.796;9.806;2022-07-23T07:58:04;24.30;87.40
66184;DHT22;52989;48.796;9.806;2022-07-23T08:00:30;23.90;88.80
66184;DHT22;52989;48.796;9.806;2022-07-23T08:02:55;23.80;90.20
66184;DHT22;52989;48.796;9.806;2022-07-23T08:05:26;24.10;90.40
66184;DHT22;52989;48.796;9.806;2022-07-23T08:07:52;24.10;90.50
66184;DHT22;52989;48.796;9.806;2022-07-23T08:10:19;24.10;88.70
66184;DHT22;52989;48.796;9.806;2022-07-23T08:12:47;24.10;87.00
66184;DHT22;52989;48.796;9.806;2022-07-23T08:15:15;24.10;86.20
66184;DHT22;52989;48.796;9.806;2022-07-23T08:17:42;24.10;88.40
66184;DHT22;52989;48.796;9.806;2022-07-23T08:20:09;23.70;89.30
66184;DHT22;52989;48.796;9.806;2022-07-23T08:22:55;24.10;87.50
66184;DHT22;52989;48.796;9.806;2022-07-23T08:25:25;24.40;88.70
66184;DHT22;52989;48.796;9.806;2022-07-23T08:27:51;24.40;89.30
66184;DHT22;52989;48.796;9.806;2022-07-23T08:30:18;25.00;81.10
66184;DHT22;52989;48.796;9.806;2022-07-23T08:32:52;25.00;79.40
66184;DHT22;52989;48.796;9.806;2022-07-23T08:35:24;25.10;77.70
66184;DHT22;52989;48.796;9.806;2022-07-23T08:37:50;25.40;79.10
66184;DHT22;52989;48.796;9.806;2022-07-23T08:40:15;25.60;77.90
66184;DHT22;52989;48.796;9.806;2022-07-23T08:42:41;25.50;77.30
66184;DHT22;52989;48.796;9.806;2022-07-23T08:45:08;25.10;79.40
66184;DHT22;52989;48.796;9.806;2022-07-23T08:47:37;25.10;80.10
66184;DHT22;52989;48.796;9.806;2022-07-23T08:50:03;25.10;77.10
66184;DHT22;52989;48.796;9.806;2022-07-23T08:52:30;25.20;77.10
66184;DHT22;52989;48.796;9.806;2022-07-23T08:54:57;25.30;76.70
66184;DHT22;52989;48.796;9.806;2022-07-23T08:57:22;25.30;75.50
66184;DHT22;52989;48.796;9.806;2022-07-23T08:59:48;25.40;75.80
66184;DHT22;52989;48.796;9.806;2022-07-23T09:02:13;25.20;76.30
66184;DHT22;52989;48.796;9.806;2022-07-23T09:04:39;25.30;74.70
66184;DHT22;52989;48.796;9.806;2022-07-23T09:07:05;25.50;73.00
66184;DHT22;52989;48.796;9.806;2022-07-23T09:09:30;26.10;72.20
66184;DHT22;52989;48.796;9.806;2022-07-23T09:12:07;26.20;72.70
66184;DHT22;52989;48.796;9.806;2022-07-23T09:14:41;25.90;72.50
66184;DHT22;52989;48.796;9.806;2022-07-23T09:17:15;25.70;71.90
66184;DHT22;52989;48.796;9.806;2022-07-23T09:19:41;25.50;73.20
66184;DHT22;52989;48.796;9.806;2022-07-23T09:22:21;25.70;72.70
66184;DHT22;52989;48.796;9.806;2022-07-23T09:27:51;25.40;77.50
66184;DHT22;52989;48.796;9.806;2022-07-23T09:30:22;25.50;74.40
66184;DHT22;52989;48.796;9.806;2022-07-23T09:36:03;26.00;70.60
66184;DHT22;52989;48.796;9.806;2022-07-23T09:38:28;26.20;70.00
66184;DHT22;52989;48.796;9.806;2022-07-23T09:41:08;26.50;71.80
66184;DHT22;52989;48.796;9.806;2022-07-23T09:43:34;26.40;69.80
66184;DHT22;52989;48.796;9.806;2022-07-23T09:48:53;26.20;69.10
66184;DHT22;52989;48.796;9.806;2022-07-23T09:51:19;26.40;68.30
66184;DHT22;52989;48.796;9.806;2022-07-23T09:54:01;26.50;67.80
66184;DHT22;52989;48.796;9.806;2022-07-23T09:56:28;26.50;68.40
66184;DHT22;52989;48.796;9.806;2022-07-23T09:58:54;26.30;68.40
66184;DHT22;52989;48.796;9.806;2022-07-23T10:01:31;26.00;71.00
66184;DHT22;52989;48.796;9.806;2022-07-23T10:03:58;25.80;68.60
66184;DHT22;52989;48.796;9.806;2022-07-23T10:06:24;25.90;73.10
66184;DHT22;52989;48.796;9.806;2022-07-23T10:08:51;25.90;72.70
66184;DHT22;52989;48.796;9.806;2022-07-23T10:11:17;26.20;71.30
66184;DHT22;52989;48.796;9.806;2022-07-23T10:13:43;26.70;67.10
66184;DHT22;52989;48.796;9.806;2022-07-23T10:16:14;26.80;66.20
66184;DHT22;52989;48.796;9.806;2022-07-23T10:18:40;26.80;67.20
66184;DHT22;52989;48.796;9.806;2022-07-23T10:21:08;26.90;67.30
66184;DHT22;52989;48.796;9.806;2022-07-23T10:23:45;27.00;68.00
66184;DHT22;52989;48.796;9.806;2022-07-23T10:26:35;27.10;68.00
66184;DHT22;52989;48.796;9.806;2022-07-23T10:29:13;27.40;69.20
66184;DHT22;52989;48.796;9.806;2022-07-23T10:32:04;27.60;67.00
66184;DHT22;52989;48.796;9.806;2022-07-23T10:34:58;27.40;64.40
66184;DHT22;52989;48.796;9.806;2022-07-23T10:37:36;27.30;68.30
66184;DHT22;52989;48.796;9.806;2022-07-23T10:40:21;26.90;66.10
66184;DHT22;52989;48.796;9.806;2022-07-23T10:42:50;27.10;66.90
66184;DHT22;52989;48.796;9.806;2022-07-23T10:45:34;26.90;64.40
66184;DHT22;52989;48.796;9.806;2022-07-23T10:48:22;27.20;64.70
66184;DHT22;52989;48.796;9.806;2022-07-23T10:51:12;27.80;62.20
66184;DHT22;52989;48.796;9.806;2022-07-23T10:56:15;27.90;62.00
66184;DHT22;52989;48.796;9.806;2022-07-23T10:58:48;27.90;62.20
66184;DHT22;52989;48.796;9.806;2022-07-23T11:01:34;28.20;64.70
66184;DHT22;52989;48.796;9.806;2022-07-23T11:04:00;28.30;61.90
66184;DHT22;52989;48.796;9.806;2022-07-23T11:09:28;28.90;62.10
66184;DHT22;52989;48.796;9.806;2022-07-23T11:17:23;28.10;61.50
66184;DHT22;52989;48.796;9.806;2022-07-23T11:22:38;29.20;61.60
66184;DHT22;52989;48.796;9.806;2022-07-23T11:25:04;28.90;62.00
66184;DHT22;52989;48.796;9.806;2022-07-23T11:27:41;29.20;61.80
66184;DHT22;52989;48.796;9.806;2022-07-23T11:30:08;29.20;61.10
66184;DHT22;52989;48.796;9.806;2022-07-23T11:32:40;29.60;60.50
66184;DHT22;52989;48.796;9.806;2022-07-23T11:35:21;29.00;58.30
66184;DHT22;52989;48.796;9.806;2022-07-23T11:37:47;28.60;59.40
66184;DHT22;52989;48.796;9.806;2022-07-23T11:40:16;28.50;61.60
66184;DHT22;52989;48.796;9.806;2022-07-23T11:43:09;28.70;60.00
66184;DHT22;52989;48.796;9.806;2022-07-23T11:48:03;29.20;60.20
66184;DHT22;52989;48.796;9.806;2022-07-23T11:50:30;28.80;59.00
66184;DHT22;52989;48.796;9.806;2022-07-23T11:52:56;28.60;61.30
66184;DHT22;52989;48.796;9.806;2022-07-23T11:55:21;28.60;60.20
66184;DHT22;52989;48.796;9.806;2022-07-23T11:57:48;29.00;59.50
66184;DHT22;52989;48.796;9.806;2022-07-23T12:00:18;28.60;59.00
66184;DHT22;52989;48.796;9.806;2022-07-23T12:02:48;28.40;62.80
66184;DHT22;52989;48.796;9.806;2022-07-23T12:05:20;28.60;61.50
66184;DHT22;52989;48.796;9.806;2022-07-23T12:07:47;29.40;59.40
66184;DHT22;52989;48.796;9.806;2022-07-23T12:15:22;29.40;58.50
66184;DHT22;52989;48.796;9.806;2022-07-23T12:17:50;29.30;56.50
66184;DHT22;52989;48.796;9.806;2022-07-23T12:20:20;29.40;56.30
66184;DHT22;52989;48.796;9.806;2022-07-23T12:22:48;29.00;56.80
66184;DHT22;52989;48.796;9.806;2022-07-23T12:25:22;29.10;58.00
66184;DHT22;52989;48.796;9.806;2022-07-23T12:28:06;28.60;55.70
66184;DHT22;52989;48.796;9.806;2022-07-23T12:30:56;28.40;57.10
66184;DHT22;52989;48.796;9.806;2022-07-23T12:33:32;28.50;57.40
66184;DHT22;52989;48.796;9.806;2022-07-23T12:36:00;28.60;57.80
66184;DHT22;52989;48.796;9.806;2022-07-23T12:38:27;28.90;57.80
66184;DHT22;52989;48.796;9.806;2022-07-23T12:40:55;29.10;57.50
66184;DHT22;52989;48.796;9.806;2022-07-23T12:43:32;29.10;59.10
66184;DHT22;52989;48.796;9.806;2022-07-23T12:46:15;29.00;58.10
66184;DHT22;52989;48.796;9.806;2022-07-23T12:51:22;28.90;57.70
66184;DHT22;52989;48.796;9.806;2022-07-23T12:53:50;29.10;58.00
66184;DHT22;52989;48.796;9.806;2022-07-23T12:56:26;28.70;57.30
66184;DHT22;52989;48.796;9.806;2022-07-23T12:58:56;29.00;57.60
66184;DHT22;52989;48.796;9.806;2022-07-23T13:04:00;29.10;55.80
66184;DHT22;52989;48.796;9.806;2022-07-23T13:06:28;29.10;58.10
66184;DHT22;52989;48.796;9.806;2022-07-23T13:08:54;29.90;56.50
66184;DHT22;52989;48.796;9.806;2022-07-23T13:11:20;29.90;55.00
66184;DHT22;52989;48.796;9.806;2022-07-23T13:13:46;29.70;56.50
66184;DHT22;52989;48.796;9.806;2022-07-23T13:16:11;29.10;54.10
66184;DHT22;52989;48.796;9.806;2022-07-23T13:18:37;28.80;57.50
66184;DHT22;52989;48.796;9.806;2022-07-23T13:21:03;28.90;55.60
66184;DHT22;52989;48.796;9.806;2022-07-23T13:23:29;29.20;57.20
66184;DHT22;52989;48.796;9.806;2022-07-23T13:25:54;29.00;56.40
66184;DHT22;52989;48.796;9.806;2022-07-23T13:28:22;29.20;57.30
66184;DHT22;52989;48.796;9.806;2022-07-23T13:30:49;29.50;55.60
66184;DHT22;52989;48.796;9.806;2022-07-23T13:33:16;29.80;54.60
66184;DHT22;52989;48.796;9.806;2022-07-23T13:35:42;29.40;55.80
66184;DHT22;52989;48.796;9.806;2022-07-23T13:38:08;28.90;55.00
66184;DHT22;52989;48.796;9.806;2022-07-23T13:40:36;28.70;56.30
66184;DHT22;52989;48.796;9.806;2022-07-23T13:43:05;29.40;56.00
66184;DHT22;52989;48.796;9.806;2022-07-23T13:45:31;29.40;54.10
66184;DHT22;52989;48.796;9.806;2022-07-23T13:47:57;29.40;53.10
66184;DHT22;52989;48.796;9.806;2022-07-23T13:50:22;29.00;53.60
66184;DHT22;52989;48.796;9.806;2022-07-23T13:52:49;29.30;54.80
66184;DHT22;52989;48.796;9.806;2022-07-23T13:55:14;29.50;54.90
66184;DHT22;52989;48.796;9.806;2022-07-23T13:57:40;29.50;54.40
66184;DHT22;52989;48.796;9.806;2022-07-23T14:00:07;30.00;55.50
66184;DHT22;52989;48.796;9.806;2022-07-23T14:02:36;30.20;53.30
66184;DHT22;52989;48.796;9.806;2022-07-23T14:05:06;29.70;53.60
66184;DHT22;52989;48.796;9.806;2022-07-23T14:07:33;29.60;55.00
66184;DHT22;52989;48.796;9.806;2022-07-23T14:09:58;29.50;54.40
66184;DHT22;52989;48.796;9.806;2022-07-23T14:12:24;29.60;54.20
66184;DHT22;52989;48.796;9.806;2022-07-23T14:14:50;29.60;53.00
66184;DHT22;52989;48.796;9.806;2022-07-23T14:17:16;29.00;55.50
66184;DHT22;52989;48.796;9.806;2022-07-23T14:19:41;29.40;55.60
66184;DHT22;52989;48.796;9.806;2022-07-23T14:22:07;29.30;54.90
66184;DHT22;52989;48.796;9.806;2022-07-23T14:24:33;28.70;55.00
66184;DHT22;52989;48.796;9.806;2022-07-23T14:27:00;29.00;55.70
66184;DHT22;52989;48.796;9.806;2022-07-23T14:29:27;29.30;56.10
66184;DHT22;52989;48.796;9.806;2022-07-23T14:31:52;29.00;55.60
66184;DHT22;52989;48.796;9.806;2022-07-23T14:34:18;29.30;56.00
66184;DHT22;52989;48.796;9.806;2022-07-23T14:36:43;29.40;56.30
66184;DHT22;52989;48.796;9.806;2022-07-23T14:39:09;29.20;56.20
66184;DHT22;52989;48.796;9.806;2022-07-23T14:41:35;29.60;55.90
66184;DHT22;52989;48.796;9.806;2022-07-23T14:44:02;29.20;55.70
66184;DHT22;52989;48.796;9.806;2022-07-23T14:46:28;29.10;56.40
66184;DHT22;52989;48.796;9.806;2022-07-23T14:48:54;29.20;56.20
66184;DHT22;52989;48.796;9.806;2022-07-23T14:51:19;28.80;56.60
66184;DHT22;52989;48.796;9.806;2022-07-23T14:53:45;28.40;57.30
66184;DHT22;52989;48.796;9.806;2022-07-23T14:56:12;28.90;56.90
66184;DHT22;52989;48.796;9.806;2022-07-23T14:58:39;28.80;56.50
66184;DHT22;52989;48.796;9.806;2022-07-23T15:01:05;29.10;59.00
66184;DHT22;52989;48.796;9.806;2022-07-23T15:03:31;29.50;57.60
66184;DHT22;52989;48.796;9.806;2022-07-23T15:05:56;29.90;56.40
66184;DHT22;52989;48.796;9.806;2022-07-23T15:08:22;30.00;56.20
66184;DHT22;52989;48.796;9.806;2022-07-23T15:10:47;30.00;54.50
66184;DHT22;52989;48.796;9.806;2022-07-23T15:13:13;29.50;55.10
66184;DHT22;52989;48.796;9.806;2022-07-23T15:15:39;29.00;56.40
66184;DHT22;52989;48.796;9.806;2022-07-23T15:18:04;29.10;56.70
66184;DHT22;52989;48.796;9.806;2022-07-23T15:20:30;29.00;56.20
66184;DHT22;52989;48.796;9.806;2022-07-23T15:22:56;28.70;56.60
66184;DHT22;52989;48.796;9.806;2022-07-23T15:25:23;28.60;56.90
66184;DHT22;52989;48.796;9.806;2022-07-23T15:27:48;28.60;58.80
66184;DHT22;52989;48.796;9.806;2022-07-23T15:30:14;28.60;58.00
66184;DHT22;52989;48.796;9.806;2022-07-23T15:32:40;28.80;57.30
66184;DHT22;52989;48.796;9.806;2022-07-23T15:35:06;28.60;56.00
66184;DHT22;52989;48.796;9.806;2022-07-23T15:37:36;28.90;57.00
66184;DHT22;52989;48.796;9.806;2022-07-23T15:40:02;28.70;57.80
66184;DHT22;52989;48.796;9.806;2022-07-23T15:42:31;29.00;56.70
66184;DHT22;52989;48.796;9.806;2022-07-23T15:44:56;28.70;56.90
66184;DHT22;52989;48.796;9.806;2022-07-23T15:47:22;29.00;57.10
66184;DHT22;52989;48.796;9.806;2022-07-23T15:49:47;29.20;57.10
66184;DHT22;52989;48.796;9.806;2022-07-23T15:52:13;29.40;57.20
66184;DHT22;52989;48.796;9.806;2022-07-23T15:54:39;28.90;54.70
66184;DHT22;52989;48.796;9.806;2022-07-23T15:57:05;28.70;55.40
66184;DHT22;52989;48.796;9.806;2022-07-23T15:59:32;28.90;55.70
66184;DHT22;52989;48.796;9.806;2022-07-23T16:01:57;28.70;55.10
66184;DHT22;52989;48.796;9.806;2022-07-23T16:04:23;28.50;54.90
66184;DHT22;52989;48.796;9.806;2022-07-23T16:06:49;28.60;55.40